createdAt,value
2022-08-21T00:01:33.169Z,3.85
2022-08-21T00:04:14.625Z,3.85
2022-08-21T00:06:56.813Z,3.90
2022-08-21T00:09:32.108Z,3.95
2022-08-21T00:12:12.915Z,3.90
2022-08-21T00:18:00.224Z,3.58
2022-08-21T00:20:51.911Z,3.72
2022-08-21T00:23:21.303Z,3.45
2022-08-21T00:26:28.994Z,3.90
2022-08-21T00:29:12.834Z,3.97
2022-08-21T00:33:06.247Z,3.90
2022-08-21T00:36:14.614Z,3.45
2022-08-21T00:39:34.788Z,3.65
2022-08-21T00:42:21.751Z,4.00
2022-08-21T00:45:15.445Z,3.92
2022-08-21T00:48:54.230Z,5.00
2022-08-21T00:52:10.455Z,4.13
2022-08-21T00:55:14.086Z,3.80
2022-08-21T01:05:48.271Z,4.07
2022-08-21T01:08:20.602Z,4.15
2022-08-21T01:10:51.140Z,4.22
2022-08-21T01:13:31.751Z,3.80
2022-08-21T01:16:03.971Z,4.22
2022-08-21T01:18:33.662Z,3.63
2022-08-21T01:21:11.590Z,4.38
2022-08-21T01:23:46.355Z,3.95
2022-08-21T01:26:18.772Z,4.25
2022-08-21T01:28:52.386Z,3.78
2022-08-21T01:31:26.961Z,3.30
2022-08-21T01:33:57.736Z,3.55
2022-08-21T01:36:29.392Z,3.80
2022-08-21T01:38:58.657Z,4.15
2022-08-21T01:41:27.771Z,4.60
2022-08-21T01:43:57.138Z,4.40
2022-08-21T01:46:26.404Z,4.60
2022-08-21T01:48:55.599Z,4.60
2022-08-21T01:51:24.911Z,4.78
2022-08-21T01:53:55.497Z,4.03
2022-08-21T01:56:24.958Z,4.47
2022-08-21T01:58:54.202Z,4.03
2022-08-21T02:01:23.465Z,5.00
2022-08-21T02:03:53.052Z,4.65
2022-08-21T02:06:22.225Z,5.05
2022-08-21T02:08:52.140Z,3.75
2022-08-21T02:11:23.179Z,3.70
2022-08-21T02:13:52.526Z,3.70
2022-08-21T02:16:21.682Z,3.88
2022-08-21T02:18:50.990Z,4.90
2022-08-21T02:21:22.454Z,4.60
2022-08-21T02:23:51.615Z,3.85
2022-08-21T02:26:22.100Z,4.10
2022-08-21T02:28:51.804Z,4.43
2022-08-21T02:31:20.974Z,4.13
2022-08-21T02:33:50.114Z,4.38
2022-08-21T02:36:19.207Z,4.78
2022-08-21T02:38:48.735Z,3.50
2022-08-21T02:41:20.357Z,4.22
2022-08-21T02:43:51.328Z,4.32
2022-08-21T02:46:24.969Z,4.28
2022-08-21T02:48:54.223Z,4.13
2022-08-21T02:51:23.811Z,4.05
2022-08-21T02:53:53.025Z,5.05
2022-08-21T02:56:23.467Z,3.97
2022-08-21T02:58:55.086Z,3.95
2022-08-21T03:01:24.569Z,4.35
2022-08-21T03:03:54.726Z,4.57
2022-08-21T03:06:26.600Z,3.97
2022-08-21T03:09:35.803Z,4.38
2022-08-21T03:12:05.676Z,3.90
2022-08-21T03:14:36.118Z,4.13
2022-08-21T03:17:06.010Z,5.05
2022-08-21T03:19:35.206Z,4.25
2022-08-21T03:22:04.527Z,4.13
2022-08-21T03:24:34.094Z,4.13
2022-08-21T03:27:03.234Z,3.63
2022-08-21T03:29:39.988Z,4.22
2022-08-21T03:32:10.876Z,3.65
2022-08-21T03:34:40.787Z,4.32
2022-08-21T03:37:12.209Z,4.00
2022-08-21T03:39:42.598Z,3.22
2022-08-21T03:42:11.663Z,4.25
2022-08-21T03:44:42.157Z,4.35
2022-08-21T03:47:11.526Z,4.40
2022-08-21T03:49:40.942Z,4.53
2022-08-21T03:52:10.082Z,4.90
2022-08-21T03:54:40.899Z,3.80
2022-08-21T03:57:11.310Z,3.90
2022-08-21T03:59:41.928Z,4.82
2022-08-21T04:02:11.975Z,4.13
2022-08-21T04:04:41.046Z,4.10
2022-08-21T04:07:10.371Z,4.35
2022-08-21T04:09:39.754Z,4.15
2022-08-21T04:12:09.766Z,4.07
2022-08-21T04:14:38.994Z,4.55
2022-08-21T04:17:09.772Z,4.45
2022-08-21T04:19:38.856Z,4.60
2022-08-21T04:22:07.975Z,4.95
2022-08-21T04:24:37.358Z,4.65
2022-08-21T04:27:06.585Z,4.85
2022-08-21T04:29:39.822Z,4.72
2022-08-21T04:32:10.560Z,4.20
2022-08-21T04:34:39.713Z,4.75
2022-08-21T04:37:08.794Z,4.60
2022-08-21T04:39:37.964Z,4.25
2022-08-21T04:42:07.731Z,4.25
2022-08-21T04:44:37.103Z,4.72
2022-08-21T04:47:06.967Z,4.40
2022-08-21T04:49:37.540Z,4.20
2022-08-21T04:52:07.644Z,4.47
2022-08-21T04:54:36.868Z,4.60
2022-08-21T04:57:12.021Z,4.93
2022-08-21T04:59:45.211Z,4.70
2022-08-21T05:02:14.831Z,4.88
2022-08-21T05:04:52.236Z,4.65
2022-08-21T05:07:42.675Z,4.45
2022-08-21T05:10:13.881Z,4.68
2022-08-21T05:12:44.228Z,5.35
2022-08-21T05:15:14.699Z,4.60
2022-08-21T05:17:44.171Z,4.57
2022-08-21T05:20:24.285Z,4.38
2022-08-21T05:22:53.732Z,4.80
2022-08-21T05:25:23.866Z,4.50
2022-08-21T05:27:53.114Z,5.22
2022-08-21T05:30:23.045Z,5.50
2022-08-21T05:32:58.530Z,5.00
2022-08-21T05:35:30.299Z,4.60
2022-08-21T05:38:00.771Z,4.60
2022-08-21T05:40:30.290Z,4.50
2022-08-21T05:43:00.136Z,4.22
2022-08-21T05:45:43.191Z,4.53
2022-08-21T05:48:16.227Z,4.35
2022-08-21T05:50:48.871Z,4.18
2022-08-21T05:53:20.916Z,4.45
2022-08-21T05:55:50.842Z,4.30
2022-08-21T05:58:23.695Z,4.95
2022-08-21T06:00:54.093Z,4.20
2022-08-21T06:03:26.513Z,4.55
2022-08-21T06:05:57.714Z,4.53
2022-08-21T06:08:27.566Z,3.70
2022-08-21T06:11:00.332Z,4.30
2022-08-21T06:13:29.715Z,4.27
2022-08-21T06:16:08.997Z,4.20
2022-08-21T06:18:39.518Z,4.15
2022-08-21T06:21:12.338Z,4.10
2022-08-21T06:23:42.344Z,4.57
2022-08-21T06:26:14.394Z,4.30
2022-08-21T06:28:44.686Z,4.00
2022-08-21T06:31:16.644Z,4.00
2022-08-21T06:33:46.236Z,4.07
2022-08-21T06:36:17.328Z,4.10
2022-08-21T06:38:50.936Z,3.93
2022-08-21T06:41:24.092Z,4.27
2022-08-21T06:43:56.642Z,4.23
2022-08-21T06:46:28.699Z,4.00
2022-08-21T06:48:58.420Z,4.57
2022-08-21T06:51:30.040Z,3.83
2022-08-21T06:53:59.506Z,4.50
2022-08-21T06:56:29.015Z,4.67
2022-08-21T06:58:58.256Z,3.80
2022-08-21T07:01:29.130Z,4.00
2022-08-21T07:03:58.294Z,4.07
2022-08-21T07:06:29.589Z,3.57
2022-08-21T07:09:03.866Z,5.20
2022-08-21T07:11:33.122Z,4.00
2022-08-21T07:14:11.653Z,4.07
2022-08-21T07:16:49.968Z,4.03
2022-08-21T07:19:19.388Z,4.70
2022-08-21T07:21:50.264Z,4.30
2022-08-21T07:24:19.493Z,4.40
2022-08-21T07:26:48.686Z,4.03
2022-08-21T07:29:18.313Z,4.30
2022-08-21T07:31:47.906Z,4.47
2022-08-21T07:34:17.193Z,4.50
2022-08-21T07:36:47.064Z,4.00
2022-08-21T07:39:17.584Z,4.23
2022-08-21T07:41:46.669Z,4.30
2022-08-21T07:44:15.974Z,3.90
2022-08-21T07:46:45.479Z,5.17
2022-08-21T07:49:14.581Z,4.40
2022-08-21T07:51:44.081Z,4.17
2022-08-21T07:54:17.295Z,4.00
2022-08-21T07:56:47.995Z,4.47
2022-08-21T07:59:17.103Z,4.60
2022-08-21T08:01:46.269Z,4.33
2022-08-21T08:04:15.983Z,4.53
2022-08-21T08:06:45.058Z,4.30
2022-08-21T08:09:14.154Z,4.07
2022-08-21T08:11:45.291Z,4.60
2022-08-21T08:14:16.563Z,5.50
2022-08-21T08:16:46.183Z,4.53
2022-08-21T08:19:15.248Z,4.20
2022-08-21T08:21:44.370Z,4.00
2022-08-21T08:24:19.768Z,4.30
2022-08-21T08:26:54.002Z,5.37
2022-08-21T08:29:24.741Z,4.47
2022-08-21T08:31:53.868Z,4.40
2022-08-21T08:34:25.464Z,4.53
2022-08-21T08:36:55.221Z,4.60
2022-08-21T08:39:26.847Z,4.17
2022-08-21T08:42:34.017Z,4.40
2022-08-21T08:45:02.170Z,5.10
2022-08-21T08:47:33.720Z,5.03
2022-08-21T08:50:08.682Z,4.43
2022-08-21T08:52:44.797Z,4.90
2022-08-21T08:55:24.233Z,5.30
2022-08-21T08:57:57.551Z,5.00
2022-08-21T09:00:28.447Z,5.33
2022-08-21T09:03:03.354Z,4.97
2022-08-21T09:05:47.134Z,4.80
2022-08-21T09:08:43.988Z,4.80
2022-08-21T09:11:20.177Z,4.40
2022-08-21T09:14:00.255Z,4.60
2022-08-21T09:16:43.764Z,5.37
2022-08-21T09:19:35.234Z,5.30
2022-08-21T09:22:15.395Z,5.70
2022-08-21T09:24:56.527Z,5.77
2022-08-21T09:27:25.770Z,5.23
2022-08-21T09:29:58.906Z,4.50
2022-08-21T09:32:37.529Z,5.37
2022-08-21T09:35:12.621Z,4.50
2022-08-21T09:37:53.765Z,4.97
2022-08-21T09:40:34.186Z,5.40
2022-08-21T09:43:08.702Z,5.53
2022-08-21T09:45:40.177Z,4.60
2022-08-21T09:48:17.087Z,4.90
2022-08-21T09:50:49.792Z,4.37
2022-08-21T09:53:22.695Z,4.50
2022-08-21T09:56:13.748Z,4.77
2022-08-21T09:58:46.638Z,4.60
2022-08-21T10:01:18.607Z,4.50
2022-08-21T10:04:06.425Z,5.13
2022-08-21T10:06:38.149Z,5.30
2022-08-21T10:09:16.958Z,5.13
2022-08-21T10:12:00.761Z,5.03
2022-08-21T10:14:46.861Z,4.97
2022-08-21T10:17:24.519Z,4.53
2022-08-21T10:20:07.713Z,4.00
2022-08-21T10:22:47.986Z,5.03
2022-08-21T10:25:23.462Z,5.23
2022-08-21T10:28:02.026Z,4.63
2022-08-21T10:30:43.645Z,4.40
2022-08-21T10:33:32.124Z,5.13
2022-08-21T10:36:11.533Z,4.70
2022-08-21T10:42:16.857Z,4.23
2022-08-21T10:45:00.122Z,4.17
2022-08-21T10:47:35.169Z,4.83
2022-08-21T10:50:13.239Z,4.10
2022-08-21T10:53:08.307Z,4.90
2022-08-21T10:55:43.028Z,4.60
2022-08-21T10:58:16.751Z,4.40
2022-08-21T11:00:51.575Z,4.33
2022-08-21T11:03:31.451Z,4.67
2022-08-21T11:06:07.044Z,4.67
2022-08-21T11:08:43.669Z,4.70
2022-08-21T11:11:21.664Z,4.27
2022-08-21T11:13:56.181Z,4.03
2022-08-21T11:16:35.676Z,5.73
2022-08-21T11:19:13.283Z,5.10
2022-08-21T11:21:49.632Z,4.60
2022-08-21T11:24:32.294Z,4.43
2022-08-21T11:27:07.064Z,5.07
2022-08-21T11:29:41.090Z,4.53
2022-08-21T11:32:33.557Z,4.60
2022-08-21T11:35:12.717Z,4.40
2022-08-21T11:38:04.518Z,5.27
2022-08-21T11:41:03.720Z,4.90
2022-08-21T11:43:41.294Z,4.80
2022-08-21T11:46:26.008Z,4.70
2022-08-21T11:49:25.948Z,4.40
2022-08-21T11:52:09.981Z,4.43
2022-08-21T11:54:46.763Z,4.13
2022-08-21T11:57:23.538Z,4.30
2022-08-21T12:00:01.624Z,4.67
2022-08-21T12:02:38.689Z,4.70
2022-08-21T12:05:11.343Z,4.20
2022-08-21T12:07:45.630Z,4.53
2022-08-21T12:10:32.990Z,4.90
2022-08-21T12:13:14.675Z,4.33
2022-08-21T12:15:46.760Z,4.40
2022-08-21T12:18:33.230Z,4.37
2022-08-21T12:21:19.733Z,4.43
2022-08-21T12:23:59.793Z,4.67
2022-08-21T12:27:01.506Z,4.63
2022-08-21T12:29:35.397Z,3.70
2022-08-21T12:32:24.060Z,3.63
2022-08-21T12:34:58.215Z,3.67
2022-08-21T12:37:42.827Z,3.67
2022-08-21T12:40:20.729Z,3.53
2022-08-21T12:46:32.182Z,4.50
2022-08-21T12:49:09.930Z,4.00
2022-08-21T12:51:53.200Z,4.40
2022-08-21T12:54:29.223Z,3.60
2022-08-21T12:57:02.750Z,3.87
2022-08-21T12:59:33.507Z,3.90
2022-08-21T13:07:46.841Z,3.50
2022-08-21T13:11:49.572Z,3.87
2022-08-21T13:19:10.589Z,4.13
2022-08-21T13:21:45.690Z,4.10
2022-08-21T13:27:33.454Z,4.20
2022-08-21T13:30:14.555Z,4.37
2022-08-21T13:32:47.318Z,3.20
2022-08-21T13:35:20.433Z,4.10
2022-08-21T13:37:52.892Z,4.10
2022-08-21T13:40:31.075Z,4.50
2022-08-21T13:43:02.410Z,3.40
2022-08-21T13:45:34.870Z,3.90
2022-08-21T13:48:06.175Z,4.23
2022-08-21T13:50:38.706Z,4.00
2022-08-21T13:53:10.308Z,3.83
2022-08-21T13:55:44.780Z,4.23
2022-08-21T13:58:14.145Z,4.87
2022-08-21T14:00:49.512Z,4.10
2022-08-21T14:03:32.441Z,3.93
2022-08-21T14:06:02.297Z,3.87
2022-08-21T14:08:37.360Z,4.10
2022-08-21T14:11:12.444Z,3.63
2022-08-21T14:13:46.454Z,3.93
2022-08-21T14:16:22.984Z,4.00
2022-08-21T14:19:08.009Z,3.83
2022-08-21T14:21:40.696Z,3.93
2022-08-21T14:24:14.044Z,3.63
2022-08-21T14:26:52.502Z,4.07
2022-08-21T14:29:27.235Z,3.83
2022-08-21T14:32:24.636Z,4.03
2022-08-21T14:34:55.496Z,3.90
2022-08-21T14:37:28.474Z,3.50
2022-08-21T14:39:57.794Z,3.57
2022-08-21T14:42:28.620Z,3.70
2022-08-21T14:45:03.910Z,3.60
2022-08-21T14:47:33.143Z,4.10
2022-08-21T14:50:02.337Z,3.27
2022-08-21T14:52:31.575Z,3.80
2022-08-21T14:55:00.776Z,3.50
2022-08-21T14:57:33.837Z,3.60
2022-08-21T15:00:03.533Z,3.57
2022-08-21T15:02:32.916Z,3.87
2022-08-21T15:05:02.230Z,3.47
2022-08-21T15:07:31.512Z,3.10
2022-08-21T15:10:01.091Z,4.27
2022-08-21T15:12:31.767Z,3.87
2022-08-21T15:15:01.625Z,4.10
2022-08-21T15:17:31.077Z,3.40
2022-08-21T15:20:00.296Z,3.70
2022-08-21T15:22:30.449Z,3.30
2022-08-21T15:24:59.824Z,3.60
2022-08-21T15:27:29.799Z,3.63
2022-08-21T15:30:00.642Z,3.93
2022-08-21T15:32:31.753Z,3.40
2022-08-21T15:35:01.205Z,3.53
2022-08-21T15:37:30.350Z,3.40
2022-08-21T15:39:59.759Z,3.53
2022-08-21T15:42:29.903Z,3.70
2022-08-21T15:45:00.529Z,4.17
2022-08-21T15:47:34.361Z,3.80
2022-08-21T15:50:05.909Z,2.67
2022-08-21T15:52:35.696Z,3.33
2022-08-21T15:55:06.675Z,3.33
2022-08-21T15:57:38.132Z,3.47
2022-08-21T16:00:16.250Z,3.23
2022-08-21T16:02:49.772Z,4.23
2022-08-21T16:05:19.883Z,3.70
2022-08-21T16:07:51.320Z,3.43
2022-08-21T16:10:24.137Z,3.63
2022-08-21T16:13:03.754Z,4.40
2022-08-21T16:15:34.792Z,4.23
2022-08-21T16:18:04.102Z,3.70
2022-08-21T16:20:33.316Z,3.63
2022-08-21T16:23:02.809Z,3.67
2022-08-21T16:25:34.128Z,3.50
2022-08-21T16:28:05.121Z,3.93
2022-08-21T16:30:38.337Z,3.97
2022-08-21T16:33:09.489Z,3.97
2022-08-21T16:35:38.941Z,3.63
2022-08-21T16:38:08.148Z,3.17
2022-08-21T16:40:37.856Z,3.30
2022-08-21T16:43:07.226Z,3.87
2022-08-21T16:45:39.059Z,3.80
2022-08-21T16:48:09.836Z,3.30
2022-08-21T16:50:39.608Z,3.60
2022-08-21T16:53:09.240Z,3.57
2022-08-21T16:55:39.064Z,3.50
2022-08-21T16:58:22.296Z,3.63
2022-08-21T17:00:53.380Z,3.40
2022-08-21T17:03:35.377Z,3.10
2022-08-21T17:06:05.218Z,3.27
2022-08-21T17:08:34.989Z,3.67
2022-08-21T17:11:05.730Z,3.20
2022-08-21T17:13:35.542Z,3.60
2022-08-21T17:16:07.684Z,3.07
2022-08-21T17:18:36.890Z,3.30
2022-08-21T17:21:06.962Z,3.60
2022-08-21T17:23:36.762Z,3.97
2022-08-21T17:26:12.818Z,3.93
2022-08-21T17:28:42.580Z,3.77
2022-08-21T17:31:14.647Z,3.47
2022-08-21T17:33:50.380Z,3.80
2022-08-21T17:36:21.179Z,3.43
2022-08-21T17:38:50.736Z,4.00
2022-08-21T17:41:22.470Z,3.97
2022-08-21T17:43:52.471Z,3.57
2022-08-21T17:46:27.041Z,3.87
2022-08-21T17:48:57.404Z,3.73
2022-08-21T17:51:26.580Z,3.40
2022-08-21T17:53:55.790Z,3.70
2022-08-21T17:56:35.110Z,3.87
2022-08-21T17:59:06.373Z,3.90
2022-08-21T18:01:43.629Z,3.80
2022-08-21T18:04:17.430Z,4.33
2022-08-21T18:06:47.276Z,3.70
2022-08-21T18:09:17.390Z,4.03
2022-08-21T18:11:46.588Z,4.33
2022-08-21T18:14:15.945Z,4.23
2022-08-21T18:16:46.355Z,4.00
2022-08-21T18:19:17.388Z,3.90
2022-08-21T18:21:46.459Z,4.50
2022-08-21T18:24:16.056Z,4.33
2022-08-21T18:26:45.398Z,3.90
2022-08-21T18:29:18.488Z,4.53
2022-08-21T18:31:50.086Z,4.83
2022-08-21T18:34:27.417Z,4.53
2022-08-21T18:36:57.264Z,5.10
2022-08-21T18:39:36.265Z,4.50
2022-08-21T18:42:12.377Z,5.47
2022-08-21T18:44:42.679Z,6.13
2022-08-21T18:47:24.412Z,5.80
2022-08-21T18:49:53.638Z,4.60
2022-08-21T18:52:22.674Z,5.00
2022-08-21T18:54:57.586Z,5.00
2022-08-21T18:57:30.661Z,5.90
2022-08-21T19:00:01.004Z,4.50
2022-08-21T19:02:31.578Z,4.80
2022-08-21T19:05:03.239Z,5.37
2022-08-21T19:07:34.068Z,5.10
2022-08-21T19:10:24.386Z,5.33
2022-08-21T19:12:55.258Z,4.50
2022-08-21T19:15:24.539Z,4.43
2022-08-21T19:17:56.302Z,5.03
2022-08-21T19:20:28.996Z,4.20
2022-08-21T19:22:58.487Z,4.90
2022-08-21T19:25:33.883Z,4.70
2022-08-21T19:28:11.126Z,4.70
2022-08-21T19:30:45.780Z,4.80
2022-08-21T19:33:23.439Z,6.30
2022-08-21T19:35:53.375Z,7.40
2022-08-21T19:38:22.798Z,6.67
2022-08-21T19:40:53.241Z,4.77
2022-08-21T19:46:13.656Z,4.40
2022-08-21T19:48:46.829Z,4.50
2022-08-21T19:51:16.252Z,4.43
2022-08-21T19:53:45.270Z,5.10
2022-08-21T19:56:21.082Z,6.60
2022-08-21T19:58:51.915Z,7.20
2022-08-21T20:01:25.241Z,6.47
2022-08-21T20:03:57.161Z,6.33
2022-08-21T20:06:27.825Z,6.20
2022-08-21T20:08:57.097Z,5.97
2022-08-21T20:11:31.496Z,5.37
2022-08-21T20:14:01.786Z,6.03
2022-08-21T20:16:32.237Z,5.90
2022-08-21T20:19:05.270Z,7.67
2022-08-21T20:21:43.686Z,8.50
2022-08-21T20:24:14.720Z,7.70
2022-08-21T20:26:49.191Z,7.20
2022-08-21T20:29:23.884Z,7.88
2022-08-21T20:32:12.139Z,8.83
2022-08-21T20:34:45.020Z,7.05
2022-08-21T20:37:14.494Z,6.50
2022-08-21T20:40:07.863Z,6.28
2022-08-21T20:42:37.287Z,7.22
2022-08-21T20:45:08.830Z,6.55
2022-08-21T20:47:38.463Z,7.70
2022-08-21T20:50:14.219Z,7.53
2022-08-21T20:52:44.161Z,6.40
2022-08-21T20:55:17.102Z,9.43
2022-08-21T20:57:53.875Z,8.13
2022-08-21T21:00:26.141Z,8.43
2022-08-21T21:05:58.338Z,7.90
2022-08-21T21:08:33.369Z,6.95
2022-08-21T21:11:06.610Z,7.20
2022-08-21T21:13:43.608Z,7.47
2022-08-21T21:16:20.039Z,7.18
2022-08-21T21:18:54.386Z,6.88
2022-08-21T21:21:33.492Z,7.13
2022-08-21T21:24:09.334Z,7.90
2022-08-21T21:26:48.746Z,7.72
2022-08-21T21:29:24.890Z,7.30
2022-08-21T21:31:55.594Z,5.75
2022-08-21T21:34:28.137Z,6.80
2022-08-21T21:37:06.185Z,6.82
2022-08-21T21:39:46.164Z,7.47
2022-08-21T21:42:30.007Z,5.65
2022-08-21T21:45:13.741Z,5.70
2022-08-21T21:47:59.071Z,4.60
2022-08-21T21:50:45.533Z,4.78
2022-08-21T21:53:46.058Z,4.70
2022-08-21T21:56:29.837Z,5.78
2022-08-21T21:59:20.457Z,5.78
2022-08-21T22:01:59.277Z,7.10
2022-08-21T22:04:35.764Z,7.65
2022-08-21T22:07:12.197Z,7.55
2022-08-21T22:09:50.376Z,5.72
2022-08-21T22:12:49.567Z,5.93
2022-08-21T22:15:27.480Z,6.22
2022-08-21T22:18:04.025Z,5.57
2022-08-21T22:20:41.373Z,6.53
2022-08-21T22:23:18.426Z,8.27
2022-08-21T22:25:53.509Z,7.50
2022-08-21T22:28:27.213Z,7.15
2022-08-21T22:31:12.560Z,6.57
2022-08-21T22:33:43.332Z,7.20
2022-08-21T22:36:19.855Z,6.57
2022-08-21T22:41:45.803Z,7.10
2022-08-21T22:44:24.095Z,6.00
2022-08-21T22:47:00.535Z,7.95
2022-08-21T22:49:38.001Z,6.70
2022-08-21T22:52:13.450Z,6.25
2022-08-21T22:54:45.866Z,6.30
2022-08-21T22:57:27.890Z,6.05
2022-08-21T23:00:02.071Z,5.85
2022-08-21T23:02:39.729Z,7.05
2022-08-21T23:05:21.286Z,7.28
2022-08-21T23:07:51.385Z,7.18
2022-08-21T23:10:27.979Z,7.05
2022-08-21T23:13:09.468Z,6.28
2022-08-21T23:15:49.847Z,6.10
2022-08-21T23:18:30.131Z,5.97
2022-08-21T23:21:08.122Z,6.90
2022-08-21T23:23:59.261Z,6.10
2022-08-21T23:26:37.447Z,5.38
2022-08-21T23:29:24.834Z,5.78
2022-08-21T23:32:04.467Z,5.85
2022-08-21T23:34:43.748Z,5.40
2022-08-21T23:37:49.794Z,8.15
2022-08-21T23:40:36.843Z,9.38
2022-08-21T23:43:33.174Z,10.00
2022-08-21T23:46:32.360Z,8.57
2022-08-21T23:49:21.293Z,6.45
2022-08-21T23:52:04.732Z,6.50
2022-08-21T23:54:46.022Z,7.32
2022-08-21T23:57:31.781Z,6.05
